createdAt,value
2023-11-18T07:44:08.794Z,10.59
2023-11-18T07:46:44.688Z,10.67
2023-11-18T07:49:12.625Z,10.46
2023-11-18T07:51:41.696Z,10.26
2023-11-18T07:54:09.329Z,10.50
2023-11-18T07:56:43.448Z,10.78
2023-11-18T07:59:10.420Z,10.90
2023-11-18T08:01:46.015Z,11.00
2023-11-18T08:04:12.827Z,10.99
2023-11-18T08:06:39.556Z,10.87
2023-11-18T08:09:06.365Z,10.39
2023-11-18T08:11:33.165Z,10.68
2023-11-18T08:13:59.973Z,10.51
2023-11-18T17:27:08.663Z,11.92
2023-11-18T17:29:35.716Z,11.99
2023-11-18T17:32:02.809Z,12.03
2023-11-18T17:34:29.836Z,12.11
2023-11-18T17:36:56.833Z,12.13
2023-11-18T17:39:23.799Z,12.08
2023-11-18T17:41:51.170Z,12.09
2023-11-18T17:44:18.157Z,12.08
2023-11-18T17:46:45.130Z,12.08
2023-11-18T17:49:12.291Z,12.15
2023-11-18T17:51:39.666Z,12.12
2023-11-18T17:54:06.625Z,12.14
2023-11-18T17:56:33.685Z,12.16
2023-11-18T17:59:00.727Z,12.20
2023-11-18T18:01:27.862Z,12.11
2023-11-18T18:03:54.857Z,12.09
2023-11-18T18:06:21.857Z,12.22
2023-11-18T18:08:48.893Z,12.23
2023-11-18T18:11:16.042Z,12.12
2023-11-18T18:13:43.033Z,12.18
2023-11-18T18:16:10.077Z,12.19
2023-11-18T18:18:37.144Z,12.10
2023-11-18T18:21:06.283Z,12.17
2023-11-18T18:23:33.173Z,12.12
2023-11-18T18:26:00.248Z,12.31
2023-11-18T18:28:27.237Z,12.34
2023-11-18T18:30:54.094Z,12.27
2023-11-18T18:33:20.987Z,12.39
2023-11-18T18:35:47.977Z,12.32
2023-11-18T18:38:15.028Z,12.18
2023-11-18T18:40:42.036Z,12.20
2023-11-18T18:43:09.530Z,12.32
2023-11-18T18:45:43.063Z,12.16
2023-11-18T19:28:39.978Z,12.27
2023-11-18T19:31:06.903Z,12.32
2023-11-18T19:33:33.865Z,12.27
2023-11-18T19:36:00.867Z,12.31
2023-11-18T19:38:27.728Z,12.32
2023-11-18T19:40:54.619Z,12.36
2023-11-18T19:43:21.715Z,12.42
2023-11-18T19:45:48.641Z,12.32
2023-11-18T19:48:15.584Z,12.39
2023-11-18T19:50:42.786Z,12.38
2023-11-18T19:53:09.829Z,12.40
2023-11-18T19:55:36.761Z,12.38
2023-11-18T19:58:03.739Z,12.42
2023-11-18T20:00:30.660Z,12.34
2023-11-18T20:02:57.859Z,12.29
2023-11-18T20:05:25.017Z,12.20
2023-11-18T20:07:52.203Z,12.09
2023-11-18T20:10:19.115Z,11.93
2023-11-18T20:12:46.099Z,12.00
2023-11-18T20:15:13.407Z,12.08
2023-11-18T20:17:40.491Z,12.12
2023-11-18T20:20:07.509Z,12.18
2023-11-18T20:22:34.463Z,12.28
2023-11-18T20:25:01.420Z,12.30
2023-11-18T20:27:28.351Z,12.24
2023-11-18T20:29:55.235Z,12.15
2023-11-18T20:32:22.225Z,12.15
2023-11-18T20:34:49.208Z,12.32
2023-11-18T20:37:16.138Z,12.37
2023-11-18T20:39:42.994Z,12.47
2023-11-18T20:42:10.073Z,12.48
2023-11-18T20:44:38.746Z,12.56
2023-11-18T20:47:06.063Z,12.61
2023-11-18T20:49:33.019Z,12.63
2023-11-18T20:51:59.951Z,12.59
2023-11-18T20:54:26.872Z,12.54
2023-11-18T20:56:53.779Z,12.60
2023-11-18T20:59:20.819Z,12.59
2023-11-18T21:01:47.745Z,12.59
2023-11-18T21:04:18.687Z,12.58
2023-11-18T21:06:53.507Z,12.55
2023-11-18T21:09:24.566Z,12.57
2023-11-18T21:12:16.388Z,12.66
2023-11-18T21:14:47.448Z,12.60
2023-11-18T21:17:44.168Z,12.64
2023-11-18T21:20:11.128Z,12.63
2023-11-18T21:22:37.941Z,12.72
2023-11-18T21:25:04.668Z,12.72
2023-11-18T21:27:31.470Z,12.59
2023-11-18T21:29:58.183Z,12.50
2023-11-18T21:32:24.973Z,12.61
2023-11-18T21:34:51.850Z,12.62
2023-11-18T21:37:21.684Z,12.65
2023-11-18T21:39:48.477Z,12.66
2023-11-18T21:42:15.424Z,12.62
2023-11-18T21:44:42.275Z,12.66
2023-11-18T21:49:51.834Z,12.62
2023-11-18T21:52:20.205Z,12.59
2023-11-18T21:54:47.001Z,12.66
2023-11-18T21:57:13.938Z,12.66
2023-11-18T21:59:40.742Z,12.62
